Moroto Airport

HUMO · Northern Region, Uganda

METAR history HUMO · Moroto Airport

Below you see METARs of the last few days. Select a year to browse through older METARs, from the year 2007 onwards.

May 19, 2024

Time Code Weather Temp. Visibility Ceiling Wind METAR/SPECI
16:00
V
34 °C 10 km+ 30,000 ft 090° 090° 10 kt METAR HKLO 191300Z 09010KT 9999 FEW034CB BKN300 34/19 Q1005
15:00
V
34 °C 10 km+ 30,000 ft 060° 060° 10 kt METAR HKLO 191200Z 06010KT 9999 FEW034CB SCT035 BKN300 34/19 Q1006
14:00
V
35 °C 10 km+ 30,000 ft 090° 090° 15 kt METAR HKLO 191100Z 09015KT 9999 FEW034CB SCT035 BKN300 35/19 Q1006
13:00
V
34 °C 10 km+ 29,000 ft 090° 090° 12 kt METAR HKLO 191000Z 09012KT 9999 SCT034 BKN290 34/19 Q1008
12:00
V
34 °C 10 km+ 29,000 ft 080° 080° 15 kt METAR HKLO 190900Z 08015KT 9999 SCT033 BKN290 34/19 Q1009
11:00
V
34 °C 10 km+ 29,000 ft 090° 090° 15 kt METAR HKLO 190800Z 09015KT 9999 FEW032 BKN290 34/19 Q1010
10:00
V
32 °C 10 km+ - 120° 120° 8 kt METAR HKLO 190700Z 12008KT CAVOK 32/20 Q1010
09:00
V
31 °C 10 km+ - 120° 120° 5 kt METAR HKLO 190600Z 12005KT CAVOK 31/20 Q1010
08:00
V
29 °C 10 km+ - 360° 360° 0 kt METAR HKLO 190500Z 00000KT CAVOK 29/20 Q1010
07:00
V
26 °C 10 km+ - 360° 360° 0 kt METAR HKLO 190400Z 00000KT CAVOK 26/21 Q1009
06:00
V
27 °C 10 km+ - 360° 360° 0 kt METAR HKLO 190300Z 00000KT CAVOK 27/21 Q1009
05:00
V
28 °C 10 km+ - 360° 360° 0 kt METAR HKLO 190200Z 00000KT CAVOK 28/20 Q1008
04:00
V
28 °C 10 km+ - 360° 360° 0 kt METAR HKLO 190100Z 00000KT CAVOK 28/20 Q1007
03:00
V
29 °C 10 km+ - 090° 090° 8 kt METAR HKLO 190000Z 09008KT CAVOK 29/20 Q1007
02:00
V
30 °C 10 km+ - 090° 090° 12 kt METAR HKLO 182300Z 09012KT CAVOK 30/19 Q1007
01:00
V
30 °C 10 km+ - 120° 120° 7 kt METAR HKLO 182200Z 12007KT CAVOK 30/18 Q1007
00:00
V
30 °C 10 km+ - 110° 110° 5 kt METAR HKLO 182100Z 11005KT CAVOK 30/18 Q1008

May 18, 2024

Time Code Weather Temp. Visibility Ceiling Wind METAR/SPECI
22:00
V
31 °C 10 km+ - 360° 360° 0 kt METAR HKLO 181900Z 00000KT CAVOK 31/18 Q1007
21:00
V
32 °C 10 km+ - 360° 360° 0 kt METAR HKLO 181800Z 00000KT CAVOK 32/18 Q1007
20:00
V
33 °C 10 km+ - 090° 090° 10 kt METAR HKLO 181700Z 09010KT CAVOK 33/18 Q1006
19:00
V
34 °C 10 km+ - 120° 120° 5 kt METAR HKLO 181600Z 12005KT 9999 FEW033CB 34/17 Q1005
18:00
V
36 °C 10 km+ - 110° 110° 7 kt METAR HKLO 181500Z 11007KT 9999 FEW034CB 36/16 Q1004
17:00
V
36 °C 10 km+ - 090° 090° 8 kt METAR HKLO 181400Z 09008KT 9999 FEW035 36/17 Q1004
16:00
V
36 °C 10 km+ - 120° 120° 10 kt METAR HKLO 181300Z 12010KT 9999 SCT036 36/17 Q1004
15:00
V
37 °C 10 km+ - 120° 120° 7 kt METAR HKLO 181200Z 12007KT 9999 SCT036 37/18 Q1005
14:00
V
36 °C 10 km+ 3,500 ft 110° 110° 15 kt METAR HKLO 181100Z 11015KT 9999 BKN035 36/18 Q1007
13:00
V
36 °C 10 km+ 3,400 ft 360° 360° 0 kt METAR HKLO 181000Z 00000KT 9999 BKN034 36/18 Q1008
12:00
V
35 °C 10 km+ - 140° 140° 10 kt METAR HKLO 180900Z 14010KT 9999 SCT033 35/18 Q1009
11:00
V
34 °C 10 km+ - 120° 120° 13 kt METAR HKLO 180800Z 12013KT 9999 FEW032 34/20 Q1010
10:00
V
32 °C 10 km+ - 110° 110° 10 kt METAR HKLO 180700Z 11010KT 9999 FEW030 32/20 Q1011
09:00
V
30 °C 10 km+ - 110° 110° 5 kt METAR HKLO 180600Z 11005KT CAVOK 30/21 Q1011
08:00
V
29 °C 10 km+ - 110° 110° 4 kt METAR HKLO 180500Z 11004KT CAVOK 29/20 Q1011
07:00
V
27 °C 10 km+ - 360° 360° 0 kt METAR HKLO 180400Z 00000KT CAVOK 27/21 Q1010
06:00
V
27 °C 10 km+ - 110° 110° 5 kt METAR HKLO 180300Z 11005KT CAVOK 27/21 Q1009
05:00
V
28 °C 10 km+ - 110° 110° 7 kt METAR HKLO 180200Z 11007KT CAVOK 28/21 Q1009
03:00
V
29 °C 10 km+ - 090° 090° 7 kt METAR HKLO 180000Z 09007KT CAVOK 29/20 Q1009
02:00
V
29 °C 10 km+ - 360° 360° 0 kt METAR HKLO 172300Z 00000KT CAVOK 29/20 Q1009
01:00
V
30 °C 10 km+ - 360° 360° 0 kt METAR HKLO 172200Z 00000KT CAVOK 30/20 Q1009
00:00
V
30 °C 10 km+ - 090° 090° 5 kt METAR HKLO 172100Z 09005KT CAVOK 30/19 Q1010

May 17, 2024

Time Code Weather Temp. Visibility Ceiling Wind METAR/SPECI
23:00
V
31 °C 10 km+ - 360° 360° 0 kt METAR HKLO 172000Z 00000KT CAVOK 31/19 Q1009
22:00
V
31 °C 10 km+ - 360° 360° 0 kt METAR HKLO 171900Z 00000KT CAVOK 31/19 Q1009
21:00
V
32 °C 10 km+ - 090° 090° 5 kt METAR HKLO 171800Z 09005KT CAVOK 32/18 Q1008
20:00
V
33 °C 10 km+ - 090° 090° 5 kt METAR HKLO 171700Z 09005KT CAVOK 33/18 Q1007
19:00
V
34 °C 10 km+ 30,000 ft 110° 110° 5 kt METAR HKLO 171600Z 11005KT 9999 FEW033CB BKN300 34/18 Q1006
18:00
V
35 °C 10 km+ - 110° 110° 5 kt METAR HKLO 171500Z 11005KT 9999 FEW034 35/17 Q1006
17:00
V
36 °C 10 km+ - 110° 110° 8 kt METAR HKLO 171400Z 11008KT 9999 SCT035 36/17 Q1005
16:00
V
36 °C 10 km+ - 110° 110° 8 kt METAR HKLO 171300Z 11008KT 9999 SCT036 36/17 Q1006
15:00
V
36 °C 10 km+ 3,600 ft 110° 110° 10 kt METAR HKLO 171200Z 11010KT 9999 BKN036 36/18 Q1007
14:00
V
35 °C 10 km+ 3,500 ft 110° 110° 7 kt METAR HKLO 171100Z 11007KT 9999 BKN035 35/18 Q1007
13:00
V
35 °C 10 km+ 3,400 ft 120° 120° 15 kt METAR HKLO 171000Z 12015KT 9999 BKN034 35/18 Q1009
12:00
V
33 °C 10 km+ - 120° 120° 10 kt METAR HKLO 170900Z 12010KT 9999 SCT033 33/19 Q1010
11:00
V
33 °C 10 km+ - 110° 110° 5 kt METAR HKLO 170800Z 11005KT 9999 SCT032 33/19 Q1011
10:00
V
32 °C 10 km+ - 110° 110° 10 kt METAR HKLO 170700Z 11010KT 9999 FEW030 32/20 Q1011
09:00
V
30 °C 10 km+ - 110° 110° 10 kt METAR HKLO 170600Z 11010KT CAVOK 30/20 Q1011
Report a change